Hovedside
METAR-TAF:

METAR-TAF

Lufthavner :

Västerås lufthavn

Västerås, Sverige

breddegrad: 59-35N, lengdegrad: 016-38E, høyde over havet: 6 m

Gjeldene værobservasjon

Denne rapporten ble laget for 37 minutter siden, klokken 01:20 UTC
Vind 6 kt fra Sør-sørvest
Temperatur 0°C
Luftfuktighet 86%
Trykk 1000 hPa
Sikt 10 km eller mer

METAR: ESOW 290120Z AUTO 21006KT 9999 BKN021/// 00/M02 Q1000

Tid: 02:57 (01:57 UTC)

Varsel

Denne rapporten ble laget for 14 timer og 27 minutter siden, klokken 11:30 UTC
Varsel gyldig fra 28. klokken 12 UTC til 28. klokken 16 UTC
Vind 4 kt fra Sør
Sikt 10 km eller mer
ingen skyer under 1500 m og ingen bygeskyer

TAF: ESOW 281130Z 2812/2816 19004KT CAVOK

Værobservasjoner og værvarsel for over 4000 flyplasser (METAR- og TAF-rapporter).

Tilgjengelige stasjoner er representert av de røde og gule prikkene på kartet.

Hold musepekeren over prikken for å se navnet på stasjonen.

Klikk så for å se værobservasjoner og -varsler.

For å forandre kartet kan du klikke på den grønne knappen med svart kryss for å zoome inn, på den grønne knappen med strek for å zoome ut, eller på de grønne pilene for å se tilstøtende kart.


METAR-TAF: